Time;durP1;ratioP1;P1;durP2;ratioP2;P2;SDS_P1;SDS_P2;PMS_P1;PMS_P2;Temp;Humidity;BMP_temperature;BMP_pressure;BME280_temperature;BME280_humidity;BME280_pressure;Samples;Min_cycle;Max_cycle;Signal;HPM_P1;HPM_P2
2023/02/10 00:02:51;;;;;;;62.70;31.90;;;;;;;0.64;50.35;100725.79;235265;1192;138853;-67
2023/02/10 00:08:45;;;;;;;;;;;;;;;;;;;;;
2023/02/10 00:15:10;;;;;;;62.10;32.40;;;;;;;0.46;50.52;100732.48;235333;1197;141127;-69
2023/02/10 00:21:35;;;;;;;67.20;32.80;;;;;;;0.44;50.77;100733.35;235239;1194;139015;-67
2023/02/10 00:27:00;;;;;;;56.00;29.70;;;;;;;0.42;50.61;100743.98;235303;1193;138793;-66
2023/02/10 00:32:57;;;;;;;63.60;31.90;;;;;;;0.34;50.50;100744.63;235421;1196;139045;-67
2023/02/10 00:39:02;;;;;;;58.10;31.40;;;;;;;0.26;50.56;100754.87;235294;1193;138690;-67
2023/02/10 00:45:01;;;;;;;;;;;;;;;;;;;;;
2023/02/10 00:50:56;;;;;;;72.90;38.30;;;;;;;-0.05;51.03;100756.52;235398;1196;138922;-67
2023/02/10 00:57:07;;;;;;;79.10;39.60;;;;;;;-0.15;51.36;100765.16;235392;1193;139455;-69
2023/02/10 01:03:26;;;;;;;75.40;38.40;;;;;;;-0.28;51.46;100761.71;235295;1193;138995;-69
2023/02/10 01:09:49;;;;;;;73.40;36.10;;;;;;;-0.33;51.43;100748.24;235228;1197;139271;-70
2023/02/10 01:15:41;;;;;;;74.30;36.90;;;;;;;-0.36;51.29;100738.81;235196;1193;139526;-68
2023/02/10 01:21:36;;;;;;;;;;;;;;;-0.43;51.40;100735.59;235200;1195;139301;-68
2023/02/10 01:27:51;;;;;;;74.70;34.90;;;;;;;-0.48;51.56;100736.94;235272;1193;125384;-70
2023/02/10 01:34:16;;;;;;;77.40;38.30;;;;;;;-0.49;51.59;100724.39;235253;1193;139579;-65
2023/02/10 01:40:45;;;;;;;70.80;35.10;;;;;;;-0.38;51.37;100711.95;235552;1193;139572;-66
2023/02/10 03:45:30;;;;;;;60.30;28.00;;;;;;;-0.99;54.09;100692.48;231125;1212;635363;-72
2023/02/10 03:50:34;;;;;;;53.30;26.80;;;;;;;-0.87;53.11;100693.84;230880;1202;138104;-70
2023/02/10 03:55:37;;;;;;;52.00;25.90;;;;;;;-0.87;52.81;100693.48;228795;1209;138130;-70
2023/02/10 04:00:40;;;;;;;54.40;27.20;;;;;;;-0.88;52.65;100695.05;234453;1198;139211;-70
2023/02/10 04:05:43;;;;;;;78.80;40.20;;;;;;;-0.83;52.88;100695.80;231260;1196;138363;-67
2023/02/10 04:10:47;;;;;;;50.30;26.80;;;;;;;-0.75;52.82;100696.23;230235;1193;138631;-70
2023/02/10 04:16:01;;;;;;;84.00;42.10;;;;;;;-0.68;53.18;100699.60;230038;1196;139047;-68
2023/02/10 04:21:07;;;;;;;58.80;27.40;;;;;;;-0.64;52.28;100700.19;231647;1193;139743;-70
2023/02/10 04:26:10;;;;;;;54.00;26.20;;;;;;;-0.68;52.10;100701.70;231792;1193;139392;-69
2023/02/10 04:31:13;;;;;;;53.60;26.60;;;;;;;-0.66;52.02;100698.06;229821;1193;138410;-69
2023/02/10 04:36:17;;;;;;;51.20;26.00;;;;;;;-0.68;52.13;100700.99;230488;1193;138475;-70
2023/02/10 04:41:20;;;;;;;53.30;24.80;;;;;;;-0.72;52.00;100710.02;229837;1196;139415;-69
2023/02/10 04:46:23;;;;;;;55.60;25.60;;;;;;;-0.83;52.22;100722.09;230362;1195;138172;-70
2023/02/10 04:51:26;;;;;;;225.70;113.40;;;;;;;-0.89;52.73;100724.48;235331;1195;138629;-68
2023/02/10 04:56:29;;;;;;;59.80;28.60;;;;;;;-0.80;53.07;100727.19;232292;1193;138938;-69
2023/02/10 05:01:33;;;;;;;54.20;26.10;;;;;;;-0.88;52.57;100728.49;233578;1195;140954;-68
2023/02/10 05:06:37;;;;;;;52.70;27.60;;;;;;;-0.94;52.56;100725.46;229568;1195;139160;-70
2023/02/10 05:11:41;;;;;;;55.60;28.40;;;;;;;-0.93;52.72;100727.91;233906;1196;139553;-68
2023/02/10 05:16:44;;;;;;;54.40;28.60;;;;;;;-0.99;52.63;100734.11;231852;1193;140099;-69
2023/02/10 05:21:47;;;;;;;61.00;28.40;;;;;;;-1.02;52.94;100736.00;229544;1196;138336;-71
2023/02/10 05:26:50;;;;;;;54.90;27.50;;;;;;;-1.01;52.77;100743.48;228793;1198;139274;-69
2023/02/10 05:31:54;;;;;;;58.90;27.90;;;;;;;-1.03;52.85;100750.95;229536;1194;138323;-69
2023/02/10 05:36:57;;;;;;;61.40;29.30;;;;;;;-1.07;52.75;100754.92;229154;1198;139504;-70
2023/02/10 05:42:01;;;;;;;59.90;28.10;;;;;;;-1.06;52.74;100755.45;229847;1199;139372;-72
2023/02/10 05:47:04;;;;;;;56.00;28.00;;;;;;;-1.12;52.76;100749.98;228820;1193;138246;-69
2023/02/10 05:52:07;;;;;;;60.70;28.30;;;;;;;-1.12;53.02;100751.36;231300;1197;139380;-69
2023/02/10 05:57:10;;;;;;;60.70;28.90;;;;;;;-1.09;53.10;100754.02;229858;1196;139629;-69
2023/02/10 06:02:14;;;;;;;63.10;28.40;;;;;;;-1.08;52.94;100757.50;232814;1196;139033;-69
2023/02/10 06:07:17;;;;;;;62.90;29.50;;;;;;;-1.11;53.05;100762.18;230434;1198;139366;-68
2023/02/10 06:12:21;;;;;;;55.50;28.10;;;;;;;-1.09;53.15;100761.85;233402;1195;139461;-69
2023/02/10 06:17:25;;;;;;;56.60;27.40;;;;;;;-1.14;53.12;100765.27;228787;1198;138441;-69
2023/02/10 06:22:29;;;;;;;52.00;26.40;;;;;;;-1.24;53.39;100778.19;230481;1196;138118;-69
2023/02/10 06:27:32;;;;;;;56.10;26.70;;;;;;;-1.35;53.79;100780.11;230085;1194;138366;-69
2023/02/10 06:32:35;;;;;;;47.90;23.90;;;;;;;-1.36;53.74;100783.06;233046;1196;138420;-70
2023/02/10 06:37:38;;;;;;;40.80;22.70;;;;;;;-1.33;53.64;100779.48;230553;1198;138938;-69
2023/02/10 06:42:41;;;;;;;43.80;23.10;;;;;;;-1.27;53.62;100772.77;231040;1196;138595;-69
2023/02/10 06:47:46;;;;;;;41.90;22.40;;;;;;;-1.16;53.38;100772.20;233843;1193;138941;-69
2023/02/10 06:52:50;;;;;;;41.80;21.80;;;;;;;-1.09;53.48;100774.74;229531;1193;139201;-71
2023/02/10 06:57:53;;;;;;;48.50;23.20;;;;;;;-1.02;53.42;100781.45;229619;1198;140561;-70
2023/02/10 07:02:56;;;;;;;43.50;24.00;;;;;;;-0.99;53.25;100796.65;230465;1198;138649;-69
2023/02/10 07:08:02;;;;;;;50.20;26.50;;;;;;;-1.10;53.34;100792.48;228947;1195;138734;-69
2023/02/10 07:13:05;;;;;;;51.80;26.80;;;;;;;-1.10;53.45;100794.59;229816;1195;139021;-64
2023/02/10 07:18:09;;;;;;;51.40;26.10;;;;;;;-1.01;53.17;100798.19;230067;1194;138091;-69
2023/02/10 07:23:12;;;;;;;45.40;24.90;;;;;;;-0.94;52.94;100793.76;229546;1195;138637;-69
2023/02/10 07:28:16;;;;;;;45.00;24.10;;;;;;;-0.90;53.19;100786.83;228874;1194;138749;-68
2023/02/10 07:33:20;;;;;;;41.40;22.80;;;;;;;-0.80;53.10;100787.31;230157;1196;138848;-70
2023/02/10 07:38:23;;;;;;;48.90;25.50;;;;;;;-0.72;52.89;100791.41;229755;1193;138954;-68
2023/02/10 07:43:26;;;;;;;51.60;27.30;;;;;;;-0.65;52.58;100797.59;229451;1198;139203;-69
2023/02/10 07:48:42;;;;;;;48.20;25.40;;;;;;;-0.67;52.72;100802.95;230106;1191;139539;-67
2023/02/10 07:53:45;;;;;;;49.10;25.60;;;;;;;-0.70;52.86;100798.06;230093;1193;139106;-70
2023/02/10 07:58:49;;;;;;;48.50;24.60;;;;;;;-0.68;52.89;100806.78;234951;1193;138662;-69
2023/02/10 08:03:52;;;;;;;47.10;25.30;;;;;;;-0.61;52.99;100815.05;234242;1195;138647;-68
2023/02/10 08:08:55;;;;;;;48.90;25.40;;;;;;;-0.51;53.12;100818.66;233394;1193;139170;-68
2023/02/10 08:14:01;;;;;;;43.50;22.00;;;;;;;-0.32;52.70;100823.23;233498;1193;138412;-68
2023/02/10 08:19:04;;;;;;;44.10;22.00;;;;;;;-0.14;52.35;100835.30;230592;1193;139054;-68
2023/02/10 08:24:08;;;;;;;39.50;21.00;;;;;;;0.03;51.97;100839.47;229657;1196;138905;-69
2023/02/10 08:29:12;;;;;;;40.20;21.50;;;;;;;0.25;51.31;100843.52;229362;1197;138942;-69
2023/02/10 08:34:17;;;;;;;40.40;19.10;;;;;;;0.46;50.95;100843.00;231009;1193;139767;-69
2023/02/10 08:39:21;;;;;;;37.40;20.20;;;;;;;0.70;50.17;100827.63;230762;1193;139072;-72
2023/02/10 08:44:24;;;;;;;42.00;20.80;;;;;;;0.86;49.98;100822.85;233804;1194;138460;-71
2023/02/10 08:49:28;;;;;;;39.60;20.00;;;;;;;0.93;49.62;100821.67;232384;1193;138566;-70
2023/02/10 08:54:31;;;;;;;36.70;19.90;;;;;;;1.03;49.26;100825.92;229340;1195;139390;-70
2023/02/10 08:59:35;;;;;;;37.30;18.20;;;;;;;1.22;48.63;100820.44;229465;1198;138402;-70
2023/02/10 09:04:40;;;;;;;35.80;18.90;;;;;;;1.36;48.03;100821.02;228934;1198;138940;-69
2023/02/10 09:09:43;;;;;;;34.30;18.00;;;;;;;1.51;47.86;100826.15;229918;1193;139193;-69
2023/02/10 09:14:47;;;;;;;37.60;17.50;;;;;;;1.57;47.40;100842.09;230189;1196;139567;-68
2023/02/10 09:19:50;;;;;;;33.50;18.10;;;;;;;1.65;46.86;100837.58;230025;1197;139117;-69
2023/02/10 09:24:53;;;;;;;43.50;21.60;;;;;;;1.77;47.45;100826.77;230775;1193;139246;-68
2023/02/10 09:29:56;;;;;;;38.50;17.50;;;;;;;1.89;46.77;100825.21;230012;1196;138552;-68
2023/02/10 09:35:00;;;;;;;32.50;18.70;;;;;;;1.87;46.09;100821.35;229617;1197;138279;-69
2023/02/10 09:40:03;;;;;;;39.50;18.50;;;;;;;1.89;46.37;100820.48;229165;1197;139408;-70
2023/02/10 09:45:15;;;;;;;37.60;19.40;;;;;;;1.97;46.31;100828.02;234861;1196;138704;-69
2023/02/10 09:50:43;;;;;;;37.00;19.20;;;;;;;2.09;46.14;100825.95;231828;1193;138686;-70
2023/02/10 09:55:48;;;;;;;34.10;18.60;;;;;;;2.19;45.90;100820.87;230988;1197;138900;-68
2023/02/10 10:01:01;;;;;;;39.60;18.50;;;;;;;2.28;45.94;100823.86;232477;1193;138298;-67
2023/02/10 10:06:13;;;;;;;35.90;19.30;;;;;;;2.41;46.10;100834.71;230220;1192;138696;-70
2023/02/10 10:11:45;;;;;;;41.60;18.20;;;;;;;2.46;45.63;100827.37;229559;1193;138525;-70
2023/02/10 10:17:15;;;;;;;41.10;18.40;;;;;;;2.66;45.55;100811.05;231142;1196;139279;-68
2023/02/10 10:22:36;;;;;;;42.60;18.90;;;;;;;2.79;45.17;100799.64;233623;1193;138367;-70
2023/02/10 10:27:55;;;;;;;35.00;18.00;;;;;;;2.85;45.12;100794.02;229780;1196;138776;-69
2023/02/10 10:33:03;;;;;;;36.90;18.40;;;;;;;2.94;45.47;100790.49;229115;1198;138691;-70
2023/02/10 10:38:21;;;;;;;35.30;18.20;;;;;;;3.14;45.45;100790.79;229745;1197;138820;-70
2023/02/10 10:43:29;;;;;;;37.80;16.70;;;;;;;3.35;44.85;100782.11;231435;1193;137848;-67
2023/02/10 10:48:35;;;;;;;33.20;16.30;;;;;;;3.51;44.83;100782.20;232410;1192;138519;-69
2023/02/10 10:53:42;;;;;;;31.40;16.40;;;;;;;3.69;44.73;100770.52;229556;1192;138658;-69
2023/02/10 10:58:47;;;;;;;29.40;15.10;;;;;;;3.83;43.79;100763.41;231700;1196;138412;-68
2023/02/10 11:03:50;;;;;;;31.60;14.80;;;;;;;3.91;43.74;100759.14;231089;1195;138382;-68
2023/02/10 11:09:06;;;;;;;28.00;14.40;;;;;;;4.12;43.20;100751.26;234292;1197;138817;-69
2023/02/10 11:14:16;;;;;;;25.60;14.00;;;;;;;4.30;42.91;100748.12;229749;1199;138724;-71
2023/02/10 11:19:23;;;;;;;27.10;14.50;;;;;;;4.38;42.42;100754.19;232889;1193;139505;-70
2023/02/10 11:24:30;;;;;;;33.40;14.20;;;;;;;4.45;42.06;100749.20;232159;1194;138587;-70
2023/02/10 11:29:40;;;;;;;24.40;13.80;;;;;;;4.54;42.18;100734.02;230457;1198;138905;-76
2023/02/10 11:34:48;;;;;;;24.70;12.90;;;;;;;4.59;41.98;100733.25;234114;1194;139042;-71
2023/02/10 11:39:53;;;;;;;25.60;13.10;;;;;;;4.61;42.09;100734.81;234327;1194;138600;-70
2023/02/10 11:45:01;;;;;;;24.90;13.30;;;;;;;4.69;41.76;100736.48;232129;1197;138432;-71
2023/02/10 11:50:27;;;;;;;24.70;13.80;;;;;;;4.71;41.45;100736.10;230547;1197;138699;-71
2023/02/10 11:55:45;;;;;;;24.40;14.10;;;;;;;4.75;41.63;100742.23;230075;1197;140129;-70
2023/02/10 12:00:59;;;;;;;29.80;13.80;;;;;;;4.83;41.31;100739.67;232757;1197;138633;-70
2023/02/10 12:06:32;;;;;;;28.90;16.20;;;;;;;4.80;41.31;100734.09;235279;1194;138408;-70
2023/02/10 12:11:40;;;;;;;28.20;15.60;;;;;;;4.74;41.43;100730.11;235245;1193;138852;-69
2023/02/10 12:17:12;;;;;;;29.00;14.60;;;;;;;4.76;41.74;100729.39;232591;1193;139435;-69
2023/02/10 12:22:46;;;;;;;22.50;12.50;;;;;;;4.70;41.59;100730.15;230764;1195;139293;-69
2023/02/10 12:27:59;;;;;;;26.60;14.90;;;;;;;4.60;41.76;100730.61;229749;1198;139283;-70
2023/02/10 12:33:27;;;;;;;27.00;14.30;;;;;;;4.58;42.30;100734.32;229508;1198;138910;-70
2023/02/10 12:38:39;;;;;;;25.80;15.70;;;;;;;4.56;42.52;100737.86;229104;1199;138209;-70
2023/02/10 12:43:49;;;;;;;27.40;14.60;;;;;;;4.55;42.60;100733.65;230503;1197;139212;-71
2023/02/10 12:49:26;;;;;;;24.10;14.50;;;;;;;4.50;42.63;100729.13;228962;1197;138229;-69
2023/02/10 12:54:41;;;;;;;33.70;14.90;;;;;;;4.55;43.02;100740.67;230848;1197;138783;-72
2023/02/10 13:00:06;;;;;;;29.00;14.60;;;;;;;4.62;42.79;100739.91;229595;1197;139178;-77
2023/02/10 13:05:15;;;;;;;31.80;15.80;;;;;;;4.62;43.50;100748.87;230544;1197;138768;-70
2023/02/10 13:10:38;;;;;;;34.20;16.20;;;;;;;4.83;43.55;100746.55;229346;1197;138955;-72
2023/02/10 13:15:49;;;;;;;26.60;14.70;;;;;;;5.02;43.10;100732.06;230773;1197;138810;-72
2023/02/10 13:21:20;;;;;;;24.10;14.60;;;;;;;5.22;42.98;100726.71;230682;1197;139281;-71
2023/02/10 13:26:51;;;;;;;28.20;15.50;;;;;;;5.31;42.99;100722.91;233473;1193;138737;-71
2023/02/10 13:32:13;;;;;;;28.70;15.80;;;;;;;5.36;42.99;100735.86;231013;1194;139071;-69
2023/02/10 13:37:26;;;;;;;26.40;15.60;;;;;;;5.35;42.71;100743.09;234673;1198;138922;-70
2023/02/10 13:42:37;;;;;;;23.40;15.60;;;;;;;5.13;43.11;100739.50;231497;1193;139079;-71
2023/02/10 13:47:46;;;;;;;26.30;16.90;;;;;;;5.07;43.06;100746.26;230800;1197;139169;-70
2023/02/10 13:53:05;;;;;;;29.60;16.40;;;;;;;4.93;43.41;100747.64;229893;1194;139014;-69
2023/02/10 13:58:12;;;;;;;30.60;16.70;;;;;;;4.92;44.18;100750.64;231009;1197;139922;-69
2023/02/10 14:03:16;;;;;;;30.50;17.70;;;;;;;4.92;44.04;100758.40;232700;1197;139297;-68
2023/02/10 14:08:49;;;;;;;36.20;18.40;;;;;;;4.85;44.39;100761.11;231605;1193;139331;-69
2023/02/10 14:14:25;;;;;;;30.60;16.00;;;;;;;4.81;44.80;100763.98;230921;1193;138767;-69
2023/02/10 14:19:34;;;;;;;28.70;16.50;;;;;;;4.69;44.81;100765.84;231109;1197;139506;-69
2023/02/10 14:24:44;;;;;;;34.00;17.90;;;;;;;4.65;45.25;100764.83;230590;1196;138759;-69
2023/02/10 14:30:00;;;;;;;29.50;17.30;;;;;;;4.69;45.33;100772.36;231834;1197;138803;-71
2023/02/10 14:35:18;;;;;;;32.90;16.20;;;;;;;4.68;45.30;100784.85;230747;1198;138592;-70
2023/02/10 14:40:32;;;;;;;123.70;62.90;;;;;;;4.57;45.74;100787.05;232033;1197;138805;-69
2023/02/10 14:45:40;;;;;;;33.30;18.70;;;;;;;4.64;46.85;100797.89;230921;1199;138588;-69
2023/02/10 14:50:46;;;;;;;34.60;19.40;;;;;;;4.70;45.89;100805.38;229691;1197;139051;-70
2023/02/10 14:55:58;;;;;;;20.20;12.20;;;;;;;4.63;45.94;100807.73;232094;1198;139061;-69
2023/02/10 15:01:07;;;;;;;34.00;19.40;;;;;;;4.57;46.28;100808.51;229913;1199;138850;-71
2023/02/10 15:06:16;;;;;;;32.20;19.00;;;;;;;4.52;46.39;100812.58;232826;1193;139474;-68
2023/02/10 15:16:49;;;;;;;32.60;17.70;;;;;;;4.30;46.90;100821.55;229677;1193;139440;-71
2023/02/10 15:21:53;;;;;;;;;;;;;;;4.25;47.36;100831.25;229246;1198;139329;-71
2023/02/10 15:27:18;;;;;;;234.90;131.10;;;;;;;4.21;47.57;100831.45;230839;1197;125213;-68
2023/02/10 15:32:22;;;;;;;32.00;18.90;;;;;;;4.25;47.60;100835.64;234783;1197;139638;-69
2023/02/10 15:37:31;;;;;;;32.20;18.00;;;;;;;4.26;47.74;100829.48;232187;1193;138325;-69
2023/02/10 15:42:37;;;;;;;34.50;18.90;;;;;;;4.27;47.88;100833.00;231707;1198;138511;-71
2023/02/10 15:47:47;;;;;;;34.40;19.60;;;;;;;4.22;47.65;100835.66;229684;1199;138707;-70
2023/02/10 15:52:52;;;;;;;36.50;19.40;;;;;;;4.25;48.24;100832.84;229658;1197;138810;-71
2023/02/10 15:57:59;;;;;;;42.50;18.40;;;;;;;4.26;48.14;100831.95;229412;1199;138693;-71
2023/02/10 16:03:07;;;;;;;32.20;17.90;;;;;;;4.27;48.25;100835.46;232391;1193;138402;-70
2023/02/10 16:08:20;;;;;;;27.00;17.10;;;;;;;4.22;48.67;100840.41;231934;1198;138783;-70
2023/02/10 16:13:24;;;;;;;32.30;17.90;;;;;;;4.15;48.87;100847.30;232613;1198;138939;-70
2023/02/10 16:18:30;;;;;;;30.50;17.10;;;;;;;4.11;48.71;100856.64;230208;1193;138777;-72
2023/02/10 16:23:36;;;;;;;31.40;18.40;;;;;;;4.10;48.89;100860.33;230558;1197;139546;-70
2023/02/10 16:28:40;;;;;;;24.90;15.00;;;;;;;4.11;49.09;100863.85;233026;1193;138406;-68
2023/02/10 16:33:45;;;;;;;39.20;19.50;;;;;;;5.12;52.66;100857.54;233674;1195;138624;-70
2023/02/10 16:38:49;;;;;;;45.50;20.30;;;;;;;5.14;47.33;100857.70;231029;1199;138759;-73
2023/02/10 16:43:54;;;;;;;45.00;21.40;;;;;;;4.85;47.22;100861.88;233555;1196;139077;-73
2023/02/10 16:48:57;;;;;;;34.20;20.80;;;;;;;4.66;47.64;100858.17;231216;1199;138472;-73
2023/02/10 16:54:08;;;;;;;241.70;134.60;;;;;;;4.52;47.58;100854.60;228916;1198;138550;-73
2023/02/10 16:59:17;;;;;;;40.00;22.00;;;;;;;4.45;47.96;100860.63;228974;1199;139304;-73
2023/02/10 17:04:21;;;;;;;46.10;22.40;;;;;;;4.37;47.79;100863.84;229850;1199;139290;-73
2023/02/10 17:09:26;;;;;;;34.80;20.30;;;;;;;4.30;47.82;100862.84;229073;1197;138337;-73
2023/02/10 17:14:31;;;;;;;45.70;23.70;;;;;;;4.16;48.00;100871.36;228742;1199;139073;-74
2023/02/10 17:19:35;;;;;;;40.10;23.70;;;;;;;4.11;47.90;100872.28;229085;1198;139280;-74
2023/02/10 17:24:39;;;;;;;48.80;21.80;;;;;;;4.03;48.34;100868.45;231506;1196;138810;-73
2023/02/10 17:29:43;;;;;;;45.00;23.40;;;;;;;3.98;48.78;100870.95;229696;1197;138741;-74
2023/02/10 17:34:51;;;;;;;172.30;93.60;;;;;;;4.05;48.71;100876.71;229965;1198;139522;-73
2023/02/10 17:45:13;;;;;;;45.20;25.20;;;;;;;3.92;48.58;100876.25;230496;1196;139933;-74
2023/02/10 17:50:19;;;;;;;42.60;25.40;;;;;;;3.91;49.24;100869.58;229632;1199;139376;-74
2023/02/10 17:55:24;;;;;;;50.60;26.20;;;;;;;3.89;48.94;100875.73;229764;1198;138566;-72
2023/02/10 18:00:28;;;;;;;48.40;27.20;;;;;;;3.89;49.39;100871.88;231575;1196;138641;-71
2023/02/10 18:05:32;;;;;;;46.00;25.10;;;;;;;3.90;49.40;100863.98;230136;1198;138897;-71
2023/02/10 18:10:37;;;;;;;53.80;27.20;;;;;;;3.86;49.52;100864.34;230992;1198;138803;-73
2023/02/10 18:15:41;;;;;;;52.10;26.80;;;;;;;3.85;49.48;100860.32;232134;1196;138596;-71
2023/02/10 18:20:44;;;;;;;49.00;27.00;;;;;;;3.86;49.82;100849.23;230128;1196;138477;-71
2023/02/10 18:25:49;;;;;;;56.20;28.40;;;;;;;3.89;49.80;100852.56;229909;1199;138955;-71
2023/02/10 18:30:53;;;;;;;53.40;26.80;;;;;;;3.93;49.67;100851.31;230401;1196;140360;-71
2023/02/10 18:35:57;;;;;;;52.10;28.90;;;;;;;3.90;49.59;100849.92;229152;1199;138749;-74
2023/02/10 18:41:01;;;;;;;48.60;27.50;;;;;;;3.85;49.95;100851.70;234272;1193;138411;-71
2023/02/10 18:46:05;;;;;;;50.80;27.70;;;;;;;3.83;49.99;100843.81;233177;1197;138837;-72
2023/02/10 18:51:11;;;;;;;54.10;28.80;;;;;;;3.82;50.22;100839.78;231995;1197;138538;-74
2023/02/10 18:56:17;;;;;;;54.20;30.20;;;;;;;3.81;50.29;100846.11;235209;1194;139198;-72
2023/02/10 19:01:24;;;;;;;53.30;29.50;;;;;;;3.81;50.16;100850.85;233495;1196;139648;-70
2023/02/10 19:06:28;;;;;;;60.50;30.20;;;;;;;3.83;50.20;100849.61;235402;1196;138371;-71
2023/02/10 19:11:34;;;;;;;59.10;33.90;;;;;;;3.87;50.39;100853.80;235250;1196;139035;-68
2023/02/10 19:16:40;;;;;;;54.10;29.00;;;;;;;3.92;50.25;100849.39;235190;1193;138666;-70
2023/02/10 19:21:43;;;;;;;59.40;32.30;;;;;;;3.86;50.41;100852.58;233411;1194;138860;-71
2023/02/10 19:26:47;;;;;;;57.40;32.80;;;;;;;3.89;50.41;100853.27;232815;1193;138924;-71
2023/02/10 19:31:50;;;;;;;56.70;33.10;;;;;;;3.90;50.27;100844.13;231123;1198;138744;-72
2023/02/10 19:36:54;;;;;;;62.00;33.50;;;;;;;3.86;50.41;100845.55;233150;1195;138861;-72
2023/02/10 19:41:57;;;;;;;56.70;32.00;;;;;;;3.83;50.54;100854.17;234145;1196;139285;-72
2023/02/10 19:47:01;;;;;;;61.70;33.10;;;;;;;3.75;50.60;100857.55;231239;1196;139832;-71
2023/02/10 19:52:04;;;;;;;129.60;71.80;;;;;;;3.79;51.29;100852.97;229396;1198;138976;-71
2023/02/10 19:57:07;;;;;;;58.30;33.10;;;;;;;3.87;51.20;100856.79;233347;1193;139667;-71
2023/02/10 20:02:13;;;;;;;58.70;33.20;;;;;;;3.82;51.13;100855.77;234757;1197;138535;-72
2023/02/10 20:07:18;;;;;;;65.60;35.40;;;;;;;3.80;51.05;100852.27;232685;1196;138599;-70
2023/02/10 20:12:21;;;;;;;57.10;33.30;;;;;;;3.81;51.26;100850.33;232849;1193;139274;-73
2023/02/10 20:17:24;;;;;;;63.30;35.10;;;;;;;3.81;51.09;100843.48;231658;1193;138526;-71
2023/02/10 20:22:27;;;;;;;58.00;33.30;;;;;;;3.81;51.47;100851.72;229297;1196;138941;-70
2023/02/10 20:27:32;;;;;;;59.30;32.40;;;;;;;3.76;51.48;100842.45;229100;1193;138582;-70
2023/02/10 20:32:35;;;;;;;61.60;34.00;;;;;;;3.67;51.54;100833.89;232588;1195;138462;-70
2023/02/10 20:37:38;;;;;;;61.20;32.30;;;;;;;3.65;51.41;100832.33;235245;1192;139767;-71
2023/02/10 20:42:42;;;;;;;101.50;57.30;;;;;;;3.59;51.76;100825.86;233369;1196;138990;-70
2023/02/10 20:47:47;;;;;;;63.10;34.10;;;;;;;3.62;52.29;100819.70;231846;1197;138673;-72
2023/02/10 20:52:51;;;;;;;57.20;33.70;;;;;;;3.61;51.90;100809.89;230421;1193;138754;-71
2023/02/10 20:57:54;;;;;;;61.30;33.30;;;;;;;3.57;51.71;100815.69;232324;1192;141583;-71
2023/02/10 21:02:58;;;;;;;61.30;31.90;;;;;;;3.52;52.08;100817.13;233571;1196;138872;-70
2023/02/10 21:08:03;;;;;;;56.70;30.70;;;;;;;3.44;52.13;100816.63;235222;1192;139897;-72
2023/02/10 21:13:06;;;;;;;55.00;30.90;;;;;;;3.39;52.36;100816.30;232831;1193;138715;-71
2023/02/10 21:18:10;;;;;;;60.30;33.20;;;;;;;3.40;52.27;100805.60;233502;1192;138432;-72
2023/02/10 21:23:13;;;;;;;56.00;30.00;;;;;;;3.43;52.11;100801.19;230768;1197;138803;-72
2023/02/10 21:28:16;;;;;;;200.90;119.70;;;;;;;3.46;52.36;100801.17;232882;1195;139253;-70
2023/02/10 21:33:22;;;;;;;61.10;33.40;;;;;;;3.56;52.64;100799.20;232001;1194;141125;-73
2023/02/10 21:38:25;;;;;;;64.30;34.70;;;;;;;3.63;52.17;100786.35;232379;1197;138881;-71
2023/02/10 21:43:29;;;;;;;59.50;30.90;;;;;;;3.62;51.97;100785.48;230326;1195;139450;-70
2023/02/10 21:48:32;;;;;;;56.30;31.60;;;;;;;3.60;52.12;100789.19;229629;1199;139918;-72
2023/02/10 21:53:35;;;;;;;56.90;32.00;;;;;;;3.57;51.88;100779.71;229541;1197;139786;-72
2023/02/10 21:58:39;;;;;;;59.80;32.30;;;;;;;3.55;52.15;100775.16;232591;1193;139275;-73
2023/02/10 22:03:43;;;;;;;56.30;31.80;;;;;;;3.51;52.03;100779.92;231382;1196;140097;-71
2023/02/10 22:08:46;;;;;;;59.20;32.20;;;;;;;3.50;52.18;100782.73;232972;1196;138632;-70
2023/02/10 22:13:51;;;;;;;56.00;30.80;;;;;;;3.49;52.31;100782.73;230925;1193;138871;-72
2023/02/10 22:18:55;;;;;;;94.60;52.60;;;;;;;3.52;52.69;100785.89;231485;1193;138880;-69
2023/02/10 22:24:12;;;;;;;57.30;32.50;;;;;;;3.57;52.85;100785.85;235269;1195;141948;-70
2023/02/10 22:29:16;;;;;;;56.20;29.70;;;;;;;3.56;52.28;100778.14;234011;1195;138986;-74
2023/02/10 22:34:20;;;;;;;56.10;30.60;;;;;;;3.53;52.39;100760.97;230652;1198;138870;-73
2023/02/10 22:39:24;;;;;;;54.00;30.30;;;;;;;3.53;52.39;100745.70;234965;1196;139673;-72
2023/02/10 22:44:30;;;;;;;55.20;29.20;;;;;;;3.58;52.13;100746.89;228615;1199;138388;-72
2023/02/10 22:49:33;;;;;;;;;;;;;;;3.53;52.14;100749.02;232540;1195;138775;-71
2023/02/10 22:54:36;;;;;;;52.70;28.40;;;;;;;3.47;52.02;100748.00;235299;1196;125481;-70
2023/02/10 22:59:41;;;;;;;47.80;27.60;;;;;;;3.39;52.16;100747.54;234967;1194;138693;-70
2023/02/10 23:04:44;;;;;;;47.10;27.60;;;;;;;3.33;52.14;100735.63;233200;1196;138597;-74
2023/02/10 23:09:50;;;;;;;52.60;28.50;;;;;;;3.34;52.15;100735.10;233340;1195;138370;-72
2023/02/10 23:14:53;;;;;;;50.80;29.60;;;;;;;3.26;52.32;100725.33;234984;1194;138751;-70
2023/02/10 23:19:57;;;;;;;54.00;30.00;;;;;;;3.21;52.34;100730.42;229324;1197;138998;-69
2023/02/10 23:25:00;;;;;;;51.80;28.60;;;;;;;3.21;52.39;100730.77;231027;1195;139584;-70
2023/02/10 23:30:04;;;;;;;52.60;29.50;;;;;;;3.15;52.19;100722.05;230998;1199;139263;-69
2023/02/10 23:35:08;;;;;;;49.00;28.00;;;;;;;3.12;52.33;100713.82;235076;1196;138752;-69
2023/02/10 23:40:11;;;;;;;49.80;28.20;;;;;;;3.11;52.10;100710.31;230847;1195;138568;-71
2023/02/10 23:45:15;;;;;;;48.10;27.70;;;;;;;3.05;52.24;100718.23;234256;1196;138946;-70
2023/02/10 23:50:18;;;;;;;46.70;27.10;;;;;;;2.98;52.25;100720.19;231580;1195;139422;-70
2023/02/10 23:55:22;;;;;;;49.90;27.90;;;;;;;2.98;52.23;100716.33;231969;1195;139235;-70
